createdAt,value
2022-12-04T00:01:18.849Z,2.60
2022-12-04T00:03:47.369Z,2.60
2022-12-04T00:06:16.551Z,2.60
2022-12-04T00:08:44.879Z,2.60
2022-12-04T00:11:15.123Z,2.60
2022-12-04T00:13:44.708Z,2.70
2022-12-04T00:16:14.552Z,2.70
2022-12-04T00:18:42.637Z,2.70
2022-12-04T00:21:13.342Z,2.70
2022-12-04T00:23:42.428Z,2.70
2022-12-04T00:26:12.674Z,2.80
2022-12-04T00:28:41.655Z,2.80
2022-12-04T00:31:13.821Z,2.80
2022-12-04T00:33:41.879Z,2.80
2022-12-04T00:36:12.183Z,2.70
2022-12-04T00:38:41.037Z,2.70
2022-12-04T00:41:10.913Z,2.70
2022-12-04T00:43:38.923Z,2.60
2022-12-04T00:46:07.311Z,2.60
2022-12-04T00:48:37.086Z,2.70
2022-12-04T00:51:05.650Z,2.70
2022-12-04T00:53:33.986Z,2.70
2022-12-04T00:56:05.410Z,2.70
2022-12-04T00:58:33.680Z,2.60
2022-12-04T01:01:04.548Z,2.60
2022-12-04T01:03:32.880Z,2.70
2022-12-04T01:06:03.105Z,2.60
2022-12-04T01:08:31.612Z,2.60
2022-12-04T01:10:59.564Z,2.70
2022-12-04T01:13:27.921Z,2.70
2022-12-04T01:15:55.983Z,2.60
2022-12-04T01:18:24.313Z,2.70
2022-12-04T01:20:53.305Z,2.60
2022-12-04T01:23:22.687Z,2.60
2022-12-04T01:25:54.702Z,2.70
2022-12-04T01:28:22.912Z,2.70
2022-12-04T01:31:01.524Z,2.70
2022-12-04T01:33:30.890Z,2.60
2022-12-04T01:36:00.270Z,2.50
2022-12-04T01:38:29.961Z,2.40
2022-12-04T01:40:59.047Z,2.30
2022-12-04T01:43:29.994Z,2.40
2022-12-04T01:45:58.993Z,2.50
2022-12-04T01:48:31.016Z,2.50
2022-12-04T01:51:06.501Z,2.50
2022-12-04T01:53:39.276Z,2.50
2022-12-04T01:56:08.385Z,2.50
2022-12-04T01:58:39.858Z,2.40
2022-12-04T02:01:09.857Z,2.40
2022-12-04T02:03:38.981Z,2.40
2022-12-04T02:06:07.720Z,2.60
2022-12-04T02:08:38.724Z,2.50
2022-12-04T02:11:17.240Z,2.40
2022-12-04T02:13:54.170Z,2.40
2022-12-04T02:16:30.963Z,2.40
2022-12-04T02:19:08.929Z,2.40
2022-12-04T02:21:39.781Z,2.50
2022-12-04T02:24:46.645Z,2.40
2022-12-04T02:27:34.199Z,2.50
2022-12-04T02:30:06.421Z,2.40
2022-12-04T02:32:42.743Z,2.50
2022-12-04T02:35:16.199Z,2.40
2022-12-04T02:37:47.046Z,2.40
2022-12-04T02:40:22.021Z,2.40
2022-12-04T02:42:56.288Z,2.40
2022-12-04T02:45:28.369Z,2.50
2022-12-04T02:47:58.144Z,2.50
2022-12-04T02:50:27.052Z,2.50
2022-12-04T02:52:59.991Z,2.50
2022-12-04T02:55:32.442Z,2.50
2022-12-04T02:58:06.645Z,2.40
2022-12-04T03:00:37.281Z,2.40
2022-12-04T03:03:09.997Z,2.40
2022-12-04T03:05:42.906Z,2.40
2022-12-04T03:08:16.032Z,2.50
2022-12-04T03:10:48.420Z,2.50
2022-12-04T03:13:21.490Z,2.60
2022-12-04T03:15:54.780Z,2.50
2022-12-04T03:18:27.035Z,2.60
2022-12-04T03:21:03.929Z,2.50
2022-12-04T03:23:35.218Z,2.60
2022-12-04T03:26:08.194Z,2.60
2022-12-04T03:28:47.590Z,2.50
2022-12-04T03:31:23.309Z,2.50
2022-12-04T03:33:56.837Z,2.50
2022-12-04T03:36:27.883Z,2.50
2022-12-04T03:39:00.287Z,2.50
2022-12-04T03:41:32.296Z,2.60
2022-12-04T03:44:08.482Z,2.60
2022-12-04T03:46:46.846Z,2.60
2022-12-04T03:49:22.345Z,2.70
2022-12-04T03:51:56.037Z,2.60
2022-12-04T03:54:29.086Z,2.60
2022-12-04T03:57:01.652Z,2.60
2022-12-04T03:59:31.445Z,2.60
2022-12-04T04:02:03.995Z,2.60
2022-12-04T04:04:35.577Z,2.60
2022-12-04T04:07:10.523Z,2.60
2022-12-04T04:09:42.529Z,2.60
2022-12-04T04:12:18.003Z,2.60
2022-12-04T04:15:08.677Z,2.60
2022-12-04T04:17:59.875Z,2.70
2022-12-04T04:20:51.762Z,2.60
2022-12-04T04:23:41.653Z,2.60
2022-12-04T04:26:12.497Z,2.70
2022-12-04T04:28:42.566Z,2.70
2022-12-04T04:31:18.878Z,2.70
2022-12-04T04:33:58.112Z,2.70
2022-12-04T04:36:37.753Z,2.70
2022-12-04T04:39:14.449Z,2.80
2022-12-04T04:41:50.503Z,2.70
2022-12-04T04:44:23.777Z,2.80
2022-12-04T04:46:57.326Z,2.80
2022-12-04T04:49:31.498Z,2.60
2022-12-04T04:52:01.064Z,2.60
2022-12-04T04:54:30.621Z,2.60
2022-12-04T04:56:58.953Z,2.50
2022-12-04T04:59:26.924Z,2.50
2022-12-04T05:01:55.096Z,2.60
2022-12-04T05:04:23.030Z,2.70
2022-12-04T05:06:52.330Z,2.60
2022-12-04T05:09:20.232Z,2.60
2022-12-04T05:11:48.204Z,2.60
2022-12-04T05:14:16.185Z,2.60
2022-12-04T05:16:44.199Z,2.60
2022-12-04T05:19:29.321Z,2.60
2022-12-04T05:21:58.637Z,2.60
2022-12-04T05:24:26.750Z,2.70
2022-12-04T05:26:54.652Z,2.60
2022-12-04T05:29:22.621Z,2.60
2022-12-04T05:31:50.591Z,2.60
2022-12-04T05:34:18.902Z,2.70
2022-12-04T05:36:46.917Z,2.70
2022-12-04T05:39:16.305Z,2.60
2022-12-04T05:41:44.706Z,2.50
2022-12-04T05:44:12.753Z,2.50
2022-12-04T05:46:40.878Z,2.70
2022-12-04T05:49:08.883Z,2.70
2022-12-04T05:51:36.920Z,2.50
2022-12-04T05:54:05.328Z,2.40
2022-12-04T05:56:34.691Z,2.40
2022-12-04T05:59:02.777Z,2.50
2022-12-04T06:01:30.719Z,2.50
2022-12-04T06:03:58.740Z,2.60
2022-12-04T06:06:27.624Z,2.50
2022-12-04T06:08:58.114Z,2.40
2022-12-04T06:11:27.881Z,2.50
2022-12-04T06:13:58.107Z,2.50
2022-12-04T06:16:27.801Z,2.40
2022-12-04T06:18:57.724Z,2.50
2022-12-04T06:21:28.042Z,2.60
2022-12-04T06:23:56.469Z,2.50
2022-12-04T06:26:25.347Z,2.60
2022-12-04T06:28:54.551Z,2.60
2022-12-04T06:31:24.650Z,2.70
2022-12-04T06:33:54.610Z,2.60
2022-12-04T06:36:22.863Z,2.50
2022-12-04T06:38:52.227Z,2.60
2022-12-04T06:41:22.087Z,2.60
2022-12-04T06:43:51.563Z,2.70
2022-12-04T06:46:21.551Z,2.60
2022-12-04T06:48:51.577Z,2.60
2022-12-04T06:51:21.097Z,2.60
2022-12-04T06:53:49.588Z,2.50
2022-12-04T06:56:21.122Z,2.40
2022-12-04T06:58:50.739Z,2.40
2022-12-04T07:01:21.680Z,2.30
2022-12-04T07:03:52.021Z,2.30
2022-12-04T07:06:22.035Z,2.20
2022-12-04T07:08:54.112Z,2.10
2022-12-04T07:11:23.258Z,2.10
2022-12-04T07:13:51.793Z,2.00
2022-12-04T07:16:22.108Z,1.80
2022-12-04T07:18:53.730Z,2.00
2022-12-04T07:21:24.055Z,2.00
2022-12-04T07:23:52.958Z,1.90
2022-12-04T07:26:22.037Z,1.90
2022-12-04T07:28:50.198Z,1.90
2022-12-04T07:31:20.351Z,1.80
2022-12-04T07:33:49.346Z,1.80
2022-12-04T07:36:20.468Z,1.70
2022-12-04T07:38:48.580Z,1.80
2022-12-04T07:41:16.655Z,2.00
2022-12-04T07:43:44.894Z,2.00
2022-12-04T07:46:15.526Z,2.10
2022-12-04T07:48:43.819Z,2.10
2022-12-04T07:51:13.677Z,2.00
2022-12-04T07:53:43.678Z,1.90
2022-12-04T07:56:13.595Z,1.90
2022-12-04T07:58:41.877Z,1.90
2022-12-04T08:01:12.528Z,2.10
2022-12-04T08:03:47.043Z,2.10
2022-12-04T08:06:17.847Z,2.10
2022-12-04T08:08:47.894Z,2.00
2022-12-04T08:11:17.883Z,2.00
2022-12-04T08:13:46.022Z,1.80
2022-12-04T08:16:15.164Z,1.80
2022-12-04T08:18:46.714Z,1.70
2022-12-04T08:21:16.835Z,1.70
2022-12-04T08:23:49.684Z,1.70
2022-12-04T08:26:18.432Z,1.80
2022-12-04T08:28:46.861Z,1.70
2022-12-04T08:31:16.600Z,1.80
2022-12-04T08:33:46.057Z,1.70
2022-12-04T08:36:16.507Z,1.80
2022-12-04T08:38:45.109Z,1.90
2022-12-04T08:41:16.850Z,1.80
2022-12-04T08:43:44.906Z,1.70
2022-12-04T08:46:15.517Z,1.70
2022-12-04T08:48:44.024Z,1.80
2022-12-04T08:51:15.253Z,1.80
2022-12-04T08:53:43.630Z,2.10
2022-12-04T08:56:11.592Z,2.20
2022-12-04T08:58:41.655Z,2.10
2022-12-04T09:01:11.651Z,2.10
2022-12-04T09:03:40.538Z,1.90
2022-12-04T09:06:10.041Z,1.80
2022-12-04T09:08:38.680Z,2.00
2022-12-04T09:11:08.030Z,1.90
2022-12-04T09:13:36.416Z,1.80
2022-12-04T09:16:08.330Z,1.80
2022-12-04T09:18:37.766Z,1.70
2022-12-04T09:21:08.712Z,1.70
2022-12-04T09:23:38.184Z,1.80
2022-12-04T09:26:08.118Z,1.80
2022-12-04T09:28:36.047Z,1.80
2022-12-04T09:31:06.981Z,1.90
2022-12-04T09:33:35.135Z,2.00
2022-12-04T09:36:03.968Z,2.00
2022-12-04T09:38:32.697Z,1.90
2022-12-04T09:41:06.634Z,2.00
2022-12-04T09:43:40.846Z,2.00
2022-12-04T09:46:20.384Z,2.20
2022-12-04T09:48:49.540Z,2.30
2022-12-04T09:51:21.891Z,2.30
2022-12-04T09:53:57.318Z,2.40
2022-12-04T09:56:30.978Z,2.40
2022-12-04T09:59:07.599Z,2.40
2022-12-04T10:01:46.434Z,2.40
2022-12-04T10:04:17.325Z,2.30
2022-12-04T10:06:53.192Z,2.30
2022-12-04T10:09:24.537Z,2.40
2022-12-04T10:12:00.984Z,2.40
2022-12-04T10:15:03.846Z,2.60
2022-12-04T10:17:54.469Z,2.60
2022-12-04T10:20:44.806Z,2.60
2022-12-04T10:23:24.479Z,2.60
2022-12-04T10:25:56.368Z,2.70
2022-12-04T10:28:29.629Z,2.60
2022-12-04T10:31:01.156Z,2.70
2022-12-04T10:33:37.995Z,2.60
2022-12-04T10:36:07.207Z,2.40
2022-12-04T10:38:41.418Z,2.40
2022-12-04T10:41:15.584Z,2.40
2022-12-04T10:43:45.568Z,2.50
2022-12-04T10:46:16.405Z,2.60
2022-12-04T10:48:49.629Z,2.60
2022-12-04T10:51:18.778Z,2.60
2022-12-04T10:53:49.287Z,2.70
2022-12-04T10:56:20.234Z,2.80
2022-12-04T10:58:59.409Z,2.80
2022-12-04T11:01:29.131Z,2.90
2022-12-04T11:04:03.536Z,2.90
2022-12-04T11:06:31.958Z,3.00
2022-12-04T11:09:00.841Z,2.90
2022-12-04T11:11:31.296Z,2.90
2022-12-04T11:14:04.578Z,2.90
2022-12-04T11:16:37.202Z,2.80
2022-12-04T11:19:23.987Z,2.90
2022-12-04T11:21:53.259Z,2.90
2022-12-04T11:24:24.577Z,3.00
2022-12-04T11:26:53.934Z,3.00
2022-12-04T11:29:30.122Z,3.10
2022-12-04T11:32:05.594Z,3.00
2022-12-04T11:34:40.054Z,2.70
2022-12-04T11:37:19.281Z,2.70
2022-12-04T11:39:47.545Z,2.90
2022-12-04T11:42:20.525Z,2.60
2022-12-04T11:44:54.308Z,2.60
2022-12-04T11:47:25.997Z,2.60
2022-12-04T11:50:13.033Z,2.70
2022-12-04T11:52:59.098Z,2.80
2022-12-04T11:55:35.352Z,2.90
2022-12-04T11:58:23.357Z,2.70
2022-12-04T12:01:00.551Z,2.90
2022-12-04T12:03:35.543Z,2.70
2022-12-04T12:06:24.014Z,2.70
2022-12-04T12:09:15.317Z,2.70
2022-12-04T12:11:50.684Z,2.70
2022-12-04T12:14:26.566Z,2.60
2022-12-04T12:17:05.140Z,2.70
2022-12-04T12:19:49.316Z,2.90
2022-12-04T12:22:34.772Z,2.70
2022-12-04T12:25:07.677Z,2.80
2022-12-04T12:27:50.943Z,2.70
2022-12-04T12:30:20.954Z,2.70
2022-12-04T12:33:05.698Z,2.70
2022-12-04T12:35:39.181Z,2.60
2022-12-04T12:38:12.667Z,2.60
2022-12-04T12:40:43.775Z,2.50
2022-12-04T12:43:17.109Z,2.50
2022-12-04T12:45:52.702Z,2.40
2022-12-04T12:48:29.497Z,2.40
2022-12-04T12:51:28.692Z,2.50
2022-12-04T12:53:54.898Z,2.50
2022-12-04T12:56:30.519Z,2.50
2022-12-04T12:59:02.729Z,2.60
2022-12-04T13:01:46.713Z,2.60
2022-12-04T13:04:23.112Z,2.70
2022-12-04T13:06:57.933Z,2.60
2022-12-04T13:09:31.638Z,2.60
2022-12-04T13:12:03.530Z,2.70
2022-12-04T13:14:31.590Z,2.70
2022-12-04T13:17:03.122Z,2.70
2022-12-04T13:19:35.644Z,2.70
2022-12-04T13:22:15.644Z,2.60
2022-12-04T13:25:06.950Z,2.60
2022-12-04T13:27:46.455Z,2.80
2022-12-04T13:30:18.888Z,2.70
2022-12-04T13:33:12.690Z,2.70
2022-12-04T13:35:55.021Z,2.70
2022-12-04T13:38:30.592Z,2.90
2022-12-04T13:41:03.018Z,2.80
2022-12-04T13:43:36.516Z,2.70
2022-12-04T13:46:07.802Z,2.70
2022-12-04T13:48:40.135Z,2.80
2022-12-04T13:51:38.214Z,2.80
2022-12-04T13:54:22.763Z,2.90
2022-12-04T13:56:53.526Z,2.90
2022-12-04T13:59:24.556Z,2.90
2022-12-04T14:01:55.077Z,2.90
2022-12-04T14:04:26.944Z,2.90
2022-12-04T14:06:57.121Z,2.90
2022-12-04T14:09:28.834Z,2.80
2022-12-04T14:12:02.661Z,2.80
2022-12-04T14:14:37.868Z,2.80
2022-12-04T14:17:07.044Z,2.80
2022-12-04T14:19:36.989Z,2.70
2022-12-04T14:22:05.511Z,2.70
2022-12-04T14:24:36.226Z,2.70
2022-12-04T14:27:33.759Z,2.80
2022-12-04T14:30:03.433Z,2.60
2022-12-04T14:32:34.743Z,2.70
2022-12-04T14:35:03.002Z,2.70
2022-12-04T14:37:35.895Z,2.70
2022-12-04T14:40:07.329Z,2.80
2022-12-04T14:42:39.520Z,2.80
2022-12-04T14:45:21.301Z,2.90
2022-12-04T14:48:04.472Z,2.90
2022-12-04T14:50:43.071Z,2.90
2022-12-04T14:53:24.289Z,3.00
2022-12-04T14:56:04.631Z,3.00
2022-12-04T14:58:39.911Z,3.00
2022-12-04T15:01:23.894Z,3.00
2022-12-04T15:03:57.304Z,3.00
2022-12-04T15:06:28.145Z,3.00
2022-12-04T15:09:19.209Z,3.10
2022-12-04T15:12:07.041Z,3.10
2022-12-04T15:14:47.676Z,3.00
2022-12-04T15:17:17.781Z,3.00
2022-12-04T15:19:45.896Z,3.00
2022-12-04T15:22:22.339Z,3.00
2022-12-04T15:24:51.215Z,3.00
2022-12-04T15:27:21.020Z,3.10
2022-12-04T15:29:53.186Z,3.00
2022-12-04T15:32:23.748Z,3.00
2022-12-04T15:34:55.275Z,3.00
2022-12-04T15:37:27.384Z,3.00
2022-12-04T15:39:56.491Z,3.10
2022-12-04T15:42:28.342Z,3.00
2022-12-04T15:45:01.275Z,3.00
2022-12-04T15:47:31.183Z,3.00
2022-12-04T15:50:10.090Z,3.10
2022-12-04T15:52:39.503Z,3.00
2022-12-04T15:55:10.253Z,2.90
2022-12-04T15:57:40.863Z,3.00
2022-12-04T16:00:26.503Z,3.00
2022-12-04T16:02:55.395Z,3.00
2022-12-04T16:05:35.315Z,3.10
2022-12-04T16:08:22.778Z,3.00
2022-12-04T16:10:58.636Z,3.00
2022-12-04T16:13:32.613Z,3.10
2022-12-04T16:16:03.728Z,3.10
2022-12-04T16:18:31.959Z,3.00
2022-12-04T16:21:00.065Z,3.00
2022-12-04T16:23:28.699Z,3.10
2022-12-04T16:25:57.048Z,3.00
2022-12-04T16:28:25.114Z,3.00
2022-12-04T16:30:53.981Z,3.00
2022-12-04T16:33:23.658Z,3.00
2022-12-04T16:35:51.744Z,3.00
2022-12-04T16:38:19.707Z,3.00
2022-12-04T16:40:49.043Z,3.00
2022-12-04T16:43:18.574Z,2.90
2022-12-04T16:45:48.581Z,3.00
2022-12-04T16:48:16.944Z,3.00
2022-12-04T16:50:46.869Z,3.00
2022-12-04T16:53:17.226Z,3.00
2022-12-04T16:55:46.854Z,3.10
2022-12-04T16:58:15.033Z,3.10
2022-12-04T17:00:44.371Z,3.10
2022-12-04T17:03:19.620Z,3.10
2022-12-04T17:05:49.065Z,3.10
2022-12-04T17:08:17.071Z,3.10
2022-12-04T17:10:45.096Z,3.10
2022-12-04T17:13:13.287Z,3.10
2022-12-04T17:15:41.610Z,3.10
2022-12-04T17:18:13.954Z,3.00
2022-12-04T17:20:45.355Z,3.00
2022-12-04T17:23:14.990Z,3.00
2022-12-04T17:25:43.550Z,3.00
2022-12-04T17:28:11.775Z,3.00
2022-12-04T17:30:39.750Z,3.00
2022-12-04T17:33:07.670Z,3.00
2022-12-04T17:35:35.831Z,3.00
2022-12-04T17:38:06.133Z,3.00
2022-12-04T17:40:36.442Z,3.00
2022-12-04T17:43:05.620Z,3.00
2022-12-04T17:45:33.897Z,3.10
2022-12-04T17:48:02.059Z,3.00
2022-12-04T17:50:30.106Z,3.00
2022-12-04T17:52:58.496Z,3.00
2022-12-04T17:55:26.660Z,3.10
2022-12-04T17:57:56.095Z,3.00
2022-12-04T18:00:25.757Z,3.10
2022-12-04T18:02:53.802Z,3.00
2022-12-04T18:05:22.201Z,3.00
2022-12-04T18:07:50.400Z,3.00
2022-12-04T18:10:18.778Z,3.00
2022-12-04T18:12:46.937Z,3.00
2022-12-04T18:15:16.524Z,3.00
2022-12-04T18:17:44.673Z,3.00
2022-12-04T18:20:13.618Z,3.00
2022-12-04T18:22:41.831Z,3.00
2022-12-04T18:25:11.258Z,3.00
2022-12-04T18:27:41.999Z,3.00
2022-12-04T18:30:10.888Z,3.00
2022-12-04T18:32:40.407Z,3.00
2022-12-04T18:35:09.003Z,3.00
2022-12-04T18:37:37.340Z,3.00
2022-12-04T18:40:07.278Z,3.00
2022-12-04T18:42:35.599Z,3.00
2022-12-04T18:45:03.599Z,3.00
2022-12-04T18:47:31.606Z,3.00
2022-12-04T18:50:01.110Z,3.10
2022-12-04T18:52:29.186Z,3.00
2022-12-04T18:54:57.308Z,3.00
2022-12-04T18:57:25.400Z,3.00
2022-12-04T18:59:53.494Z,3.00
2022-12-04T19:02:21.604Z,3.00
2022-12-04T19:04:49.932Z,3.00
2022-12-04T19:07:19.313Z,3.00
2022-12-04T19:10:21.296Z,3.00
2022-12-04T19:12:35.536Z,3.00
2022-12-04T19:15:04.017Z,3.00
2022-12-04T19:17:32.043Z,3.10
2022-12-04T19:20:00.073Z,3.10
2022-12-04T19:22:30.409Z,3.00
2022-12-04T19:24:58.573Z,3.10
2022-12-04T19:27:27.626Z,3.10
2022-12-04T19:29:56.045Z,3.10
2022-12-04T19:32:24.409Z,3.10
2022-12-04T19:34:52.668Z,3.10
2022-12-04T19:37:20.581Z,3.10
2022-12-04T19:39:50.140Z,3.00
2022-12-04T19:42:18.204Z,3.00
2022-12-04T19:44:49.213Z,3.00
2022-12-04T19:47:17.918Z,3.00
2022-12-04T19:49:46.377Z,3.00
2022-12-04T19:52:14.570Z,3.10
2022-12-04T19:54:42.581Z,3.10
2022-12-04T19:57:12.806Z,3.10
2022-12-04T19:59:45.993Z,3.00
2022-12-04T20:02:15.328Z,3.00
2022-12-04T20:04:43.552Z,3.00
2022-12-04T20:07:11.546Z,3.00
2022-12-04T20:09:39.879Z,3.00
2022-12-04T20:12:08.296Z,3.00
2022-12-04T20:14:37.551Z,2.90
2022-12-04T20:17:05.632Z,2.90
2022-12-04T20:19:33.650Z,2.90
2022-12-04T20:22:01.586Z,3.00
2022-12-04T20:24:29.773Z,3.00
2022-12-04T20:26:57.773Z,2.90
2022-12-04T20:29:25.660Z,3.00
2022-12-04T20:31:55.064Z,2.90
2022-12-04T20:34:23.296Z,3.00
2022-12-04T20:36:51.684Z,3.00
2022-12-04T20:39:20.795Z,2.90
2022-12-04T20:41:49.007Z,3.00
2022-12-04T20:44:18.544Z,2.90
2022-12-04T20:46:46.973Z,2.90
2022-12-04T20:49:21.928Z,2.90
2022-12-04T20:51:51.793Z,2.80
2022-12-04T20:54:22.236Z,2.80
2022-12-04T20:56:51.993Z,2.80
2022-12-04T20:59:22.889Z,2.80
2022-12-04T21:01:51.616Z,2.80
2022-12-04T21:04:21.930Z,2.80
2022-12-04T21:06:50.277Z,2.80
2022-12-04T21:09:21.212Z,2.90
2022-12-04T21:11:51.113Z,2.80
2022-12-04T21:14:38.205Z,2.90
2022-12-04T21:17:09.336Z,2.90
2022-12-04T21:19:39.017Z,2.90
2022-12-04T21:22:07.151Z,3.00
2022-12-04T21:24:38.670Z,3.00
2022-12-04T21:27:07.955Z,3.00
2022-12-04T21:29:36.523Z,3.00
2022-12-04T21:32:05.775Z,3.00
2022-12-04T21:34:34.349Z,3.00
2022-12-04T21:37:04.137Z,3.00
2022-12-04T21:39:32.578Z,3.10
2022-12-04T21:42:17.972Z,3.00
2022-12-04T21:44:46.767Z,3.00
2022-12-04T21:47:14.721Z,3.00
2022-12-04T21:49:42.901Z,3.00
2022-12-04T21:52:12.198Z,3.00
2022-12-04T21:54:40.164Z,3.00
2022-12-04T21:57:08.123Z,3.00
2022-12-04T21:59:36.152Z,3.00
2022-12-04T22:02:04.525Z,2.90
2022-12-04T22:04:32.556Z,2.90
2022-12-04T22:07:00.556Z,2.90
2022-12-04T22:09:30.196Z,3.00
2022-12-04T22:11:58.313Z,3.00
2022-12-04T22:14:26.597Z,2.90
2022-12-04T22:16:55.254Z,3.00
2022-12-04T22:19:23.370Z,3.00
2022-12-04T22:21:51.395Z,3.00
2022-12-04T22:24:19.520Z,3.00
2022-12-04T22:26:48.916Z,3.00
2022-12-04T22:29:48.701Z,3.00
2022-12-04T22:32:04.876Z,3.00
2022-12-04T22:34:32.955Z,3.00
2022-12-04T22:37:01.329Z,3.00
2022-12-04T22:39:29.459Z,3.00
2022-12-04T22:41:58.876Z,3.00
2022-12-04T22:44:26.872Z,3.00
2022-12-04T22:46:54.777Z,3.00
2022-12-04T22:49:22.953Z,2.90
2022-12-04T22:51:50.868Z,3.00
2022-12-04T22:54:18.848Z,2.90
2022-12-04T22:56:46.795Z,3.00
2022-12-04T22:59:16.125Z,3.00
2022-12-04T23:01:44.103Z,3.00
2022-12-04T23:04:12.034Z,3.00
2022-12-04T23:06:39.993Z,3.00
2022-12-04T23:09:10.076Z,2.90
2022-12-04T23:11:38.400Z,3.00
2022-12-04T23:14:08.838Z,2.90
2022-12-04T23:16:39.379Z,2.90
2022-12-04T23:19:08.379Z,3.00
2022-12-04T23:21:36.485Z,3.00
2022-12-04T23:24:05.052Z,3.00
2022-12-04T23:26:34.518Z,3.00
2022-12-04T23:29:03.031Z,2.90
2022-12-04T23:31:31.798Z,3.00
2022-12-04T23:34:02.012Z,3.00
2022-12-04T23:36:30.462Z,2.90
2022-12-04T23:38:58.421Z,2.90
2022-12-04T23:41:28.995Z,3.00
2022-12-04T23:43:58.185Z,3.00
2022-12-04T23:46:28.976Z,2.90
2022-12-04T23:48:56.956Z,3.00
2022-12-04T23:51:26.898Z,2.90
2022-12-04T23:53:55.038Z,2.90
2022-12-04T23:56:25.001Z,2.90
2022-12-04T23:58:54.912Z,2.90
